Terminal Aerodrome Forecast
Issued by NWS

Current Version | Previous Version | Text Only | Print | Product List | Glossary On
Versions: 1 2 3 4 5 6 7 8 9 10 11 12 13 14 15 16
000
FTUS43 KDMX 240520
TAFOTM
TAF
KOTM 240520Z 2406/2506 17012KT P6SM BKN250 WS020/22050KT
     FM241200 18011KT P6SM BKN150
     FM241700 20013G19KT P6SM VCSH SCT010 OVC050
     FM242100 22007KT 5SM -SHRA BR BKN035
     FM250200 10009KT 4SM -SHRA BR BKN015=

USA.gov is the U.S. government's official web portal to all federal, state and local government web resources and services.